createdAt,value
2018-08-09T00:01:20.611Z,60.30
2018-08-09T00:05:24.002Z,59.20
2018-08-09T00:09:27.340Z,58.70
2018-08-09T00:13:30.671Z,60.90
2018-08-09T00:17:34.011Z,61.50
2018-08-09T00:21:37.363Z,59.40
2018-08-09T00:25:40.780Z,60.80
2018-08-09T00:29:44.717Z,57.70
2018-08-09T00:33:48.043Z,60.30
2018-08-09T00:37:53.023Z,57.80
2018-08-09T00:41:56.360Z,58.10
2018-08-09T00:45:59.696Z,58.40
2018-08-09T00:50:03.087Z,58.70
2018-08-09T00:54:07.112Z,58.90
2018-08-09T00:58:10.430Z,59.30
2018-08-09T01:02:13.795Z,60.40
2018-08-09T01:06:17.145Z,59.00
2018-08-09T01:10:20.524Z,59.60
2018-08-09T01:14:23.864Z,59.80
2018-08-09T01:18:27.202Z,59.60
2018-08-09T01:22:30.551Z,60.60
2018-08-09T01:26:33.903Z,59.80
2018-08-09T01:30:37.632Z,60.60
2018-08-09T01:34:40.977Z,61.60
2018-08-09T01:38:44.322Z,60.50
2018-08-09T01:42:58.764Z,64.40
2018-08-09T01:47:02.096Z,60.20
2018-08-09T01:51:05.428Z,60.10
2018-08-09T01:55:08.767Z,59.00
2018-08-09T01:59:12.082Z,60.10
2018-08-09T02:03:16.968Z,60.10
2018-08-09T02:07:20.843Z,62.70
2018-08-09T02:11:24.186Z,61.60
2018-08-09T02:15:27.547Z,60.10
2018-08-09T02:19:31.206Z,59.50
2018-08-09T02:23:34.943Z,62.60
2018-08-09T02:27:38.299Z,60.80
2018-08-09T02:31:41.666Z,60.20
2018-08-09T02:35:45.249Z,61.60
2018-08-09T02:39:48.589Z,60.70
2018-08-09T02:43:51.942Z,61.10
2018-08-09T02:47:55.289Z,60.10
2018-08-09T02:51:58.628Z,60.30
2018-08-09T02:56:01.958Z,60.80
2018-08-09T03:00:05.944Z,62.10
2018-08-09T03:04:09.297Z,60.90
2018-08-09T03:08:12.646Z,62.40
2018-08-09T03:12:15.988Z,62.80
2018-08-09T03:16:19.322Z,63.80
2018-08-09T03:20:22.639Z,62.60
2018-08-09T03:24:26.032Z,60.80
2018-08-09T03:28:30.471Z,65.20
2018-08-09T03:32:33.861Z,63.30
2018-08-09T03:36:38.877Z,62.50
2018-08-09T03:40:42.206Z,60.60
2018-08-09T03:44:45.534Z,60.70
2018-08-09T03:48:48.876Z,61.50
2018-08-09T03:52:52.202Z,62.10
2018-08-09T03:56:55.527Z,65.10
2018-08-09T04:00:58.903Z,61.70
2018-08-09T04:05:02.223Z,64.80
2018-08-09T04:09:08.485Z,63.00
2018-08-09T04:13:11.823Z,61.10
2018-08-09T04:17:19.944Z,60.40
2018-08-09T04:21:23.287Z,61.80
2018-08-09T04:25:26.619Z,60.00
2018-08-09T04:29:29.946Z,64.80
2018-08-09T04:33:34.643Z,61.60
2018-08-09T04:37:38.028Z,64.30
2018-08-09T04:41:41.356Z,62.10
2018-08-09T04:45:44.674Z,62.30
2018-08-09T04:49:48.002Z,61.00
2018-08-09T04:53:51.328Z,61.10
2018-08-09T04:57:56.061Z,62.40
2018-08-09T05:01:59.398Z,64.40
2018-08-09T05:06:03.220Z,63.70
2018-08-09T05:10:09.396Z,65.30
2018-08-09T05:14:12.747Z,62.90
2018-08-09T05:18:16.070Z,63.40
2018-08-09T05:22:19.404Z,62.30
2018-08-09T05:26:22.755Z,62.00
2018-08-09T05:30:26.143Z,63.60
2018-08-09T05:34:29.489Z,61.50
2018-08-09T05:38:32.848Z,63.20
2018-08-09T05:42:36.906Z,61.60
2018-08-09T05:46:40.214Z,63.70
2018-08-09T05:50:43.571Z,63.40
2018-08-09T05:54:46.900Z,63.10
2018-08-09T05:58:51.062Z,60.50
2018-08-09T06:02:54.428Z,62.40
2018-08-09T06:06:57.776Z,61.30
2018-08-09T06:11:01.119Z,61.20
2018-08-09T06:15:04.804Z,63.20
2018-08-09T06:19:08.358Z,64.30
2018-08-09T06:23:11.749Z,61.50
2018-08-09T06:27:16.035Z,61.50
2018-08-09T06:31:23.461Z,61.00
2018-08-09T06:35:26.819Z,64.60
2018-08-09T06:39:30.181Z,61.60
2018-08-09T06:43:33.522Z,61.30
2018-08-09T06:47:36.853Z,61.10
2018-08-09T06:51:40.211Z,60.60
2018-08-09T06:55:43.539Z,61.60
2018-08-09T06:59:46.906Z,59.70
2018-08-09T07:03:50.266Z,60.60
2018-08-09T07:07:53.615Z,59.90
2018-08-09T07:11:56.935Z,59.80
2018-08-09T07:16:00.262Z,60.40
2018-08-09T07:20:03.742Z,60.00
2018-08-09T07:24:07.085Z,59.90
2018-08-09T07:28:10.447Z,63.10
2018-08-09T07:32:13.791Z,66.00
2018-08-09T07:36:17.114Z,60.00
2018-08-09T07:40:20.484Z,62.30
2018-08-09T07:44:23.815Z,61.80
2018-08-09T07:48:27.179Z,61.80
2018-08-09T07:52:30.550Z,59.80
2018-08-09T07:56:33.863Z,61.10
2018-08-09T08:00:37.233Z,60.40
2018-08-09T08:04:40.567Z,61.40
2018-08-09T08:08:43.883Z,64.90
2018-08-09T08:12:47.206Z,60.60
2018-08-09T08:16:50.613Z,62.50
2018-08-09T08:20:53.936Z,63.10
2018-08-09T08:25:00.290Z,60.90
2018-08-09T08:29:03.663Z,61.10
2018-08-09T08:33:06.994Z,62.00
2018-08-09T08:37:10.384Z,61.20
2018-08-09T08:41:13.819Z,61.10
2018-08-09T08:45:17.149Z,60.60
2018-08-09T08:49:20.471Z,61.00
2018-08-09T08:53:23.780Z,61.60
2018-08-09T08:57:27.116Z,59.70
2018-08-09T09:01:30.490Z,62.70
2018-08-09T09:05:33.874Z,64.60
2018-08-09T09:09:37.215Z,64.40
2018-08-09T09:13:40.534Z,62.40
2018-08-09T09:17:44.583Z,62.00
2018-08-09T09:21:47.968Z,65.70
2018-08-09T09:25:51.307Z,68.10
2018-08-09T09:29:54.628Z,65.70
2018-08-09T09:33:57.984Z,64.10
2018-08-09T09:38:01.340Z,67.10
2018-08-09T09:42:04.678Z,65.50
2018-08-09T09:46:08.031Z,63.70
2018-08-09T09:50:12.021Z,65.30
2018-08-09T09:54:15.334Z,67.80
2018-08-09T09:58:18.671Z,66.50
2018-08-09T10:02:22.141Z,63.00
2018-08-09T10:06:25.505Z,63.50
2018-08-09T10:10:28.856Z,66.70
2018-08-09T10:14:32.219Z,66.00
2018-08-09T10:18:35.570Z,65.10
2018-08-09T10:22:38.962Z,64.50
2018-08-09T10:26:42.334Z,71.90
2018-08-09T10:30:45.803Z,70.40
2018-08-09T10:34:49.152Z,68.40
2018-08-09T10:38:52.526Z,67.40
2018-08-09T10:42:55.892Z,70.10
2018-08-09T10:46:59.227Z,66.70
2018-08-09T10:51:03.141Z,67.00
2018-08-09T10:55:06.844Z,67.00
2018-08-09T10:59:10.158Z,68.40
2018-08-09T11:03:13.563Z,70.10
2018-08-09T11:07:16.890Z,67.30
2018-08-09T11:11:20.311Z,68.20
2018-08-09T11:15:23.648Z,66.20
2018-08-09T11:19:26.986Z,67.20
2018-08-09T11:23:30.852Z,66.60
2018-08-09T11:27:34.190Z,67.90
2018-08-09T11:35:40.602Z,65.20
2018-08-09T11:39:43.979Z,66.30
2018-08-09T11:43:47.280Z,66.60
2018-08-09T11:47:50.617Z,66.90
2018-08-09T11:51:53.939Z,66.10
2018-08-09T11:55:57.271Z,65.80
2018-08-09T12:00:00.720Z,65.00
2018-08-09T12:04:04.095Z,65.50
2018-08-09T12:08:07.451Z,64.50
2018-08-09T12:12:10.849Z,63.90
2018-08-09T12:16:14.183Z,64.40
2018-08-09T12:20:17.507Z,63.90
2018-08-09T12:24:20.916Z,63.80
2018-08-09T12:28:24.345Z,64.00
2018-08-09T12:32:27.699Z,62.10
2018-08-09T12:36:31.430Z,61.10
2018-08-09T12:40:34.786Z,59.80
2018-08-09T12:44:38.186Z,60.40
2018-08-09T12:48:41.547Z,60.20
2018-08-09T12:52:45.154Z,60.30
2018-08-09T12:56:48.525Z,60.70
2018-08-09T13:00:52.216Z,58.70
2018-08-09T13:04:55.552Z,59.80
2018-08-09T13:08:58.943Z,58.20
2018-08-09T13:13:02.300Z,58.40
2018-08-09T13:17:05.635Z,59.10
2018-08-09T13:21:09.011Z,59.10
2018-08-09T13:25:12.422Z,58.60
2018-08-09T13:29:15.746Z,58.00
2018-08-09T13:33:19.119Z,57.50
2018-08-09T13:37:22.492Z,56.50
2018-08-09T13:41:25.875Z,57.40
2018-08-09T13:45:29.219Z,56.60
2018-08-09T13:49:32.559Z,57.10
2018-08-09T13:53:35.939Z,55.50
2018-08-09T13:57:39.322Z,56.30
2018-08-09T14:01:42.666Z,55.60
2018-08-09T14:05:46.021Z,54.70
2018-08-09T14:09:49.368Z,55.40
2018-08-09T14:13:52.695Z,54.90
2018-08-09T14:17:56.039Z,55.20
2018-08-09T14:21:59.693Z,54.60
2018-08-09T14:26:03.036Z,53.60
2018-08-09T14:30:07.731Z,55.10
2018-08-09T14:34:11.083Z,54.00
2018-08-09T14:38:14.403Z,54.80
2018-08-09T14:42:17.748Z,54.60
2018-08-09T14:46:21.153Z,53.90
2018-08-09T14:50:24.498Z,53.90
2018-08-09T14:54:27.839Z,54.30
2018-08-09T14:58:31.212Z,54.20
2018-08-09T15:02:34.550Z,55.10
2018-08-09T15:06:37.875Z,54.00
2018-08-09T15:10:41.911Z,53.60
2018-08-09T15:14:45.376Z,53.00
2018-08-09T15:18:48.872Z,53.50
2018-08-09T15:22:52.224Z,53.70
2018-08-09T15:26:55.562Z,52.80
2018-08-09T15:30:58.916Z,52.30
2018-08-09T15:35:02.278Z,52.60
2018-08-09T15:39:09.610Z,52.20
2018-08-09T15:43:12.935Z,50.70
2018-08-09T15:47:16.304Z,55.40
2018-08-09T15:51:19.671Z,59.60
2018-08-09T15:55:22.996Z,60.10
2018-08-09T15:59:26.326Z,59.50
2018-08-09T16:03:29.650Z,61.60
2018-08-09T16:07:33.029Z,61.90
2018-08-09T16:11:36.438Z,60.20
2018-08-09T16:15:39.848Z,60.90
2018-08-09T16:19:43.250Z,61.00
2018-08-09T16:23:46.622Z,60.90
2018-08-09T16:27:50.428Z,64.70
2018-08-09T16:31:53.868Z,66.30
2018-08-09T16:35:57.227Z,63.10
2018-08-09T16:40:00.614Z,63.90
2018-08-09T16:44:03.979Z,66.50
2018-08-09T16:48:07.415Z,69.00
2018-08-09T16:52:10.764Z,70.40
2018-08-09T16:56:14.120Z,65.30
2018-08-09T17:00:20.067Z,65.00
2018-08-09T17:04:23.420Z,66.30
2018-08-09T17:08:26.762Z,65.80
2018-08-09T17:12:30.124Z,64.00
2018-08-09T17:16:33.506Z,66.10
2018-08-09T17:20:36.881Z,63.30
2018-08-09T17:24:40.276Z,62.50
2018-08-09T17:28:43.634Z,63.90
2018-08-09T17:32:46.999Z,62.60
2018-08-09T17:36:50.348Z,67.60
2018-08-09T17:40:53.714Z,63.40
2018-08-09T17:44:57.073Z,64.00
2018-08-09T17:49:00.396Z,69.00
2018-08-09T17:53:04.649Z,65.60
2018-08-09T17:57:08.014Z,66.60
2018-08-09T18:01:11.360Z,66.20
2018-08-09T18:05:14.746Z,67.30
2018-08-09T18:09:18.068Z,68.60
2018-08-09T18:13:21.413Z,65.50
2018-08-09T18:17:24.758Z,66.20
2018-08-09T18:21:28.104Z,67.40
2018-08-09T18:25:31.469Z,67.40
2018-08-09T18:29:34.842Z,67.40
2018-08-09T18:33:38.183Z,66.80
2018-08-09T18:37:42.607Z,65.10
2018-08-09T18:41:45.993Z,66.90
2018-08-09T18:45:49.380Z,65.40
2018-08-09T18:49:52.743Z,64.80
2018-08-09T18:53:56.159Z,65.70
2018-08-09T18:57:59.511Z,68.60
2018-08-09T19:02:02.879Z,66.70
2018-08-09T19:06:06.311Z,68.30
2018-08-09T19:10:11.887Z,66.70
2018-08-09T19:14:15.256Z,66.20
2018-08-09T19:18:18.590Z,69.10
2018-08-09T19:22:21.976Z,67.80
2018-08-09T19:26:25.305Z,68.20
2018-08-09T19:30:29.716Z,67.70
2018-08-09T19:34:33.079Z,69.40
2018-08-09T19:38:43.241Z,71.40
2018-08-09T19:42:46.571Z,70.60
2018-08-09T19:46:49.932Z,69.50
2018-08-09T19:50:53.374Z,68.10
2018-08-09T19:54:56.703Z,68.20
2018-08-09T19:59:00.071Z,69.30
2018-08-09T20:03:03.439Z,68.70
2018-08-09T20:07:06.875Z,68.80
2018-08-09T20:11:10.238Z,67.90
2018-08-09T20:15:16.098Z,69.30
2018-08-09T20:19:19.608Z,71.00
2018-08-09T20:23:22.980Z,69.40
2018-08-09T20:27:26.307Z,69.20
2018-08-09T20:31:29.671Z,69.30
2018-08-09T20:35:33.048Z,70.20
2018-08-09T20:39:36.419Z,69.10
2018-08-09T20:43:39.782Z,69.80
2018-08-09T20:47:43.176Z,70.10
2018-08-09T20:51:46.644Z,70.30
2018-08-09T20:55:50.000Z,69.00
2018-08-09T20:59:53.388Z,70.50
2018-08-09T21:03:56.766Z,70.90
2018-08-09T21:08:00.234Z,70.20
2018-08-09T21:12:03.610Z,70.00
2018-08-09T21:16:06.971Z,70.30
2018-08-09T21:20:10.567Z,69.70
2018-08-09T21:24:13.916Z,69.70
2018-08-09T21:28:17.267Z,70.80
2018-08-09T21:32:20.624Z,70.00
2018-08-09T21:36:23.975Z,70.80
2018-08-09T21:40:27.331Z,70.80
2018-08-09T21:44:30.725Z,71.00
2018-08-09T21:48:34.047Z,70.70
2018-08-09T21:52:37.390Z,70.20
2018-08-09T21:56:40.773Z,70.50
2018-08-09T22:00:53.637Z,70.60
2018-08-09T22:05:02.272Z,70.40
2018-08-09T22:10:15.047Z,71.00
2018-08-09T22:14:23.860Z,70.40
2018-08-09T22:18:32.418Z,70.90
2018-08-09T22:22:37.379Z,70.50
2018-08-09T22:26:40.751Z,71.10
2018-08-09T22:30:44.184Z,70.20
2018-08-09T22:34:49.348Z,70.50
2018-08-09T22:38:52.683Z,71.00
2018-08-09T22:42:56.012Z,71.90
2018-08-09T22:46:59.366Z,72.10
2018-08-09T22:51:03.304Z,72.50
2018-08-09T22:55:06.657Z,71.50
2018-08-09T22:59:10.279Z,71.30
2018-08-09T23:03:14.511Z,70.60
2018-08-09T23:07:17.867Z,70.10
